< < Back
Terminal Aerodrome Forecast


Current Version              Previous Versions:   1  2  3  4  5  6  7  8  9  

Terminal Aerodrome Forecast

392
FTUS42 KILM 300500
TAFILM
TAF
KILM 300520Z 3006/3106 03005KT P6SM BKN090
     FM301400 06008KT P6SM SCT050
     FM301900 10008KT P6SM BKN060
     FM310100 07004KT P6SM SCT120=



Latest METAR

802
SAUS70 KWBC 300500 RRK
MTRILM
METAR KILM 300453Z AUTO 00000KT 9SM OVC100 21/21 A2997 RMK AO2 SLP148
T02110206 403110200


USA.gov is the U.S. government's official web portal to all federal, state and local government web resources and services.